sensor_id;sensor_type;location;lat;lon;timestamp;P1;durP1;ratioP1;P2;durP2;ratioP2
5967;SDS011;3010;51.028;4.170;2022-08-07T00:01:05;3.87;;;3.30;;
5967;SDS011;3010;51.028;4.170;2022-08-07T00:03:31;3.90;;;3.50;;
5967;SDS011;3010;51.028;4.170;2022-08-07T00:05:57;3.53;;;3.27;;
5967;SDS011;3010;51.028;4.170;2022-08-07T00:08:24;4.00;;;3.43;;
5967;SDS011;3010;51.028;4.170;2022-08-07T00:10:50;3.30;;;3.10;;
5967;SDS011;3010;51.028;4.170;2022-08-07T00:13:19;3.87;;;3.57;;
5967;SDS011;3010;51.028;4.170;2022-08-07T00:15:45;3.67;;;3.47;;
5967;SDS011;3010;51.028;4.170;2022-08-07T00:18:12;3.90;;;3.47;;
5967;SDS011;3010;51.028;4.170;2022-08-07T00:20:40;4.23;;;3.90;;
5967;SDS011;3010;51.028;4.170;2022-08-07T00:23:07;4.10;;;3.80;;
5967;SDS011;3010;51.028;4.170;2022-08-07T00:25:34;3.90;;;3.63;;
5967;SDS011;3010;51.028;4.170;2022-08-07T00:28:00;4.70;;;4.33;;
5967;SDS011;3010;51.028;4.170;2022-08-07T00:30:27;4.23;;;4.03;;
5967;SDS011;3010;51.028;4.170;2022-08-07T00:32:57;4.17;;;3.87;;
5967;SDS011;3010;51.028;4.170;2022-08-07T00:35:20;4.13;;;3.73;;
5967;SDS011;3010;51.028;4.170;2022-08-07T00:37:46;4.87;;;3.93;;
5967;SDS011;3010;51.028;4.170;2022-08-07T00:40:13;4.23;;;3.93;;
5967;SDS011;3010;51.028;4.170;2022-08-07T00:42:40;4.57;;;4.20;;
5967;SDS011;3010;51.028;4.170;2022-08-07T00:45:06;4.93;;;4.53;;
5967;SDS011;3010;51.028;4.170;2022-08-07T00:47:33;4.10;;;3.90;;
5967;SDS011;3010;51.028;4.170;2022-08-07T00:49:59;4.33;;;4.13;;
5967;SDS011;3010;51.028;4.170;2022-08-07T00:52:26;6.87;;;4.20;;
5967;SDS011;3010;51.028;4.170;2022-08-07T00:54:53;4.70;;;4.43;;
5967;SDS011;3010;51.028;4.170;2022-08-07T00:57:20;4.90;;;4.50;;
5967;SDS011;3010;51.028;4.170;2022-08-07T00:59:48;5.23;;;4.83;;
5967;SDS011;3010;51.028;4.170;2022-08-07T01:02:15;5.47;;;4.93;;
5967;SDS011;3010;51.028;4.170;2022-08-07T01:04:41;4.60;;;4.20;;
5967;SDS011;3010;51.028;4.170;2022-08-07T01:07:08;5.13;;;4.63;;
5967;SDS011;3010;51.028;4.170;2022-08-07T01:09:35;6.97;;;4.90;;
5967;SDS011;3010;51.028;4.170;2022-08-07T01:12:01;4.90;;;4.60;;
5967;SDS011;3010;51.028;4.170;2022-08-07T01:14:28;9.57;;;5.27;;
5967;SDS011;3010;51.028;4.170;2022-08-07T01:16:55;5.33;;;4.80;;
5967;SDS011;3010;51.028;4.170;2022-08-07T01:19:21;4.80;;;4.40;;
5967;SDS011;3010;51.028;4.170;2022-08-07T01:21:48;5.27;;;4.93;;
5967;SDS011;3010;51.028;4.170;2022-08-07T01:24:15;5.50;;;5.13;;
5967;SDS011;3010;51.028;4.170;2022-08-07T01:26:41;5.00;;;4.57;;
5967;SDS011;3010;51.028;4.170;2022-08-07T01:29:07;5.53;;;5.03;;
5967;SDS011;3010;51.028;4.170;2022-08-07T01:31:34;4.87;;;4.63;;
5967;SDS011;3010;51.028;4.170;2022-08-07T01:34:01;5.20;;;4.80;;
5967;SDS011;3010;51.028;4.170;2022-08-07T01:36:27;4.97;;;4.67;;
5967;SDS011;3010;51.028;4.170;2022-08-07T01:38:54;4.83;;;4.53;;
5967;SDS011;3010;51.028;4.170;2022-08-07T01:41:23;5.53;;;4.77;;
5967;SDS011;3010;51.028;4.170;2022-08-07T01:43:49;5.33;;;4.60;;
5967;SDS011;3010;51.028;4.170;2022-08-07T01:46:16;5.40;;;5.03;;
5967;SDS011;3010;51.028;4.170;2022-08-07T01:48:43;5.83;;;5.40;;
5967;SDS011;3010;51.028;4.170;2022-08-07T01:51:10;6.00;;;5.50;;
5967;SDS011;3010;51.028;4.170;2022-08-07T01:53:41;5.47;;;5.20;;
5967;SDS011;3010;51.028;4.170;2022-08-07T01:56:08;6.10;;;5.57;;
5967;SDS011;3010;51.028;4.170;2022-08-07T01:58:33;4.90;;;4.70;;
5967;SDS011;3010;51.028;4.170;2022-08-07T02:01:02;6.47;;;4.87;;
5967;SDS011;3010;51.028;4.170;2022-08-07T02:03:27;6.30;;;5.70;;
5967;SDS011;3010;51.028;4.170;2022-08-07T02:05:54;6.50;;;6.05;;
5967;SDS011;3010;51.028;4.170;2022-08-07T02:08:22;5.80;;;5.40;;
5967;SDS011;3010;51.028;4.170;2022-08-07T02:10:47;5.73;;;5.23;;
5967;SDS011;3010;51.028;4.170;2022-08-07T02:13:14;6.10;;;5.50;;
5967;SDS011;3010;51.028;4.170;2022-08-07T02:15:40;5.83;;;5.43;;
5967;SDS011;3010;51.028;4.170;2022-08-07T02:18:09;5.73;;;5.37;;
5967;SDS011;3010;51.028;4.170;2022-08-07T02:20:36;5.87;;;5.47;;
5967;SDS011;3010;51.028;4.170;2022-08-07T02:23:03;7.07;;;6.37;;
5967;SDS011;3010;51.028;4.170;2022-08-07T02:25:30;5.77;;;5.17;;
5967;SDS011;3010;51.028;4.170;2022-08-07T02:27:56;5.90;;;5.50;;
5967;SDS011;3010;51.028;4.170;2022-08-07T02:30:22;6.47;;;5.73;;
5967;SDS011;3010;51.028;4.170;2022-08-07T02:32:49;6.60;;;6.03;;
5967;SDS011;3010;51.028;4.170;2022-08-07T02:35:15;6.53;;;6.03;;
5967;SDS011;3010;51.028;4.170;2022-08-07T02:37:42;6.43;;;5.83;;
5967;SDS011;3010;51.028;4.170;2022-08-07T02:40:09;7.80;;;7.20;;
5967;SDS011;3010;51.028;4.170;2022-08-07T02:42:35;7.03;;;6.53;;
5967;SDS011;3010;51.028;4.170;2022-08-07T02:45:03;7.97;;;7.33;;
5967;SDS011;3010;51.028;4.170;2022-08-07T02:47:28;8.93;;;8.03;;
5967;SDS011;3010;51.028;4.170;2022-08-07T02:49:55;8.13;;;7.43;;
5967;SDS011;3010;51.028;4.170;2022-08-07T02:52:23;8.40;;;7.73;;
5967;SDS011;3010;51.028;4.170;2022-08-07T02:54:48;7.93;;;7.23;;
5967;SDS011;3010;51.028;4.170;2022-08-07T02:57:15;8.37;;;7.20;;
5967;SDS011;3010;51.028;4.170;2022-08-07T02:59:41;7.43;;;6.83;;
5967;SDS011;3010;51.028;4.170;2022-08-07T03:02:08;8.23;;;7.43;;
5967;SDS011;3010;51.028;4.170;2022-08-07T03:04:35;10.30;;;7.53;;
5967;SDS011;3010;51.028;4.170;2022-08-07T03:07:01;7.90;;;7.20;;
5967;SDS011;3010;51.028;4.170;2022-08-07T03:09:28;8.10;;;7.43;;
5967;SDS011;3010;51.028;4.170;2022-08-07T03:11:54;8.80;;;7.90;;
5967;SDS011;3010;51.028;4.170;2022-08-07T03:14:21;8.57;;;7.70;;
5967;SDS011;3010;51.028;4.170;2022-08-07T03:16:48;9.87;;;8.77;;
5967;SDS011;3010;51.028;4.170;2022-08-07T03:19:14;8.77;;;7.97;;
5967;SDS011;3010;51.028;4.170;2022-08-07T03:21:41;11.10;;;8.57;;
5967;SDS011;3010;51.028;4.170;2022-08-07T03:24:07;9.77;;;8.37;;
5967;SDS011;3010;51.028;4.170;2022-08-07T03:26:34;10.87;;;8.67;;
5967;SDS011;3010;51.028;4.170;2022-08-07T03:29:01;9.33;;;8.43;;
5967;SDS011;3010;51.028;4.170;2022-08-07T03:31:27;11.20;;;9.50;;
5967;SDS011;3010;51.028;4.170;2022-08-07T03:33:55;9.83;;;8.93;;
5967;SDS011;3010;51.028;4.170;2022-08-07T03:36:24;9.93;;;8.93;;
5967;SDS011;3010;51.028;4.170;2022-08-07T03:38:50;10.80;;;9.37;;
5967;SDS011;3010;51.028;4.170;2022-08-07T03:41:16;9.97;;;9.07;;
5967;SDS011;3010;51.028;4.170;2022-08-07T03:43:43;10.77;;;9.77;;
5967;SDS011;3010;51.028;4.170;2022-08-07T03:46:09;10.37;;;9.47;;
5967;SDS011;3010;51.028;4.170;2022-08-07T03:48:36;10.30;;;9.40;;
5967;SDS011;3010;51.028;4.170;2022-08-07T03:51:03;10.73;;;9.50;;
5967;SDS011;3010;51.028;4.170;2022-08-07T03:53:29;10.80;;;9.80;;
5967;SDS011;3010;51.028;4.170;2022-08-07T03:55:56;12.33;;;10.17;;
5967;SDS011;3010;51.028;4.170;2022-08-07T03:58:22;11.87;;;10.00;;
5967;SDS011;3010;51.028;4.170;2022-08-07T04:00:49;12.30;;;10.17;;
5967;SDS011;3010;51.028;4.170;2022-08-07T04:03:15;11.07;;;9.97;;
5967;SDS011;3010;51.028;4.170;2022-08-07T04:05:42;14.23;;;11.23;;
5967;SDS011;3010;51.028;4.170;2022-08-07T04:08:09;13.93;;;10.87;;
5967;SDS011;3010;51.028;4.170;2022-08-07T04:10:35;11.50;;;10.40;;
5967;SDS011;3010;51.028;4.170;2022-08-07T04:13:02;12.00;;;10.87;;
5967;SDS011;3010;51.028;4.170;2022-08-07T04:15:28;12.47;;;11.13;;
5967;SDS011;3010;51.028;4.170;2022-08-07T04:17:55;13.87;;;11.57;;
5967;SDS011;3010;51.028;4.170;2022-08-07T04:20:22;14.68;;;13.20;;
5967;SDS011;3010;51.028;4.170;2022-08-07T04:22:48;16.70;;;12.87;;
5967;SDS011;3010;51.028;4.170;2022-08-07T04:25:15;11.47;;;10.37;;
5967;SDS011;3010;51.028;4.170;2022-08-07T04:27:41;12.97;;;11.70;;
5967;SDS011;3010;51.028;4.170;2022-08-07T04:30:08;17.93;;;15.23;;
5967;SDS011;3010;51.028;4.170;2022-08-07T04:32:35;15.73;;;14.15;;
5967;SDS011;3010;51.028;4.170;2022-08-07T04:35:02;15.27;;;13.77;;
5967;SDS011;3010;51.028;4.170;2022-08-07T04:37:28;13.63;;;12.23;;
5967;SDS011;3010;51.028;4.170;2022-08-07T04:39:54;13.30;;;11.83;;
5967;SDS011;3010;51.028;4.170;2022-08-07T04:42:21;11.97;;;10.87;;
5967;SDS011;3010;51.028;4.170;2022-08-07T04:44:48;12.57;;;10.53;;
5967;SDS011;3010;51.028;4.170;2022-08-07T04:47:20;12.93;;;11.53;;
5967;SDS011;3010;51.028;4.170;2022-08-07T04:49:46;13.20;;;10.93;;
5967;SDS011;3010;51.028;4.170;2022-08-07T05:00:13;12.57;;;11.20;;
5967;SDS011;3010;51.028;4.170;2022-08-07T05:05:21;13.23;;;11.77;;
5967;SDS011;3010;51.028;4.170;2022-08-07T05:08:07;13.40;;;11.37;;
5967;SDS011;3010;51.028;4.170;2022-08-07T05:10:39;13.33;;;10.90;;
5967;SDS011;3010;51.028;4.170;2022-08-07T05:13:06;12.60;;;11.30;;
5967;SDS011;3010;51.028;4.170;2022-08-07T05:15:41;12.13;;;10.60;;
5967;SDS011;3010;51.028;4.170;2022-08-07T05:18:10;12.63;;;10.93;;
5967;SDS011;3010;51.028;4.170;2022-08-07T05:20:34;12.27;;;10.63;;
5967;SDS011;3010;51.028;4.170;2022-08-07T05:23:03;12.67;;;11.27;;
5967;SDS011;3010;51.028;4.170;2022-08-07T05:25:26;13.07;;;11.57;;
5967;SDS011;3010;51.028;4.170;2022-08-07T05:27:52;11.30;;;10.23;;
5967;SDS011;3010;51.028;4.170;2022-08-07T05:30:19;14.30;;;11.70;;
5967;SDS011;3010;51.028;4.170;2022-08-07T05:32:45;13.77;;;12.10;;
5967;SDS011;3010;51.028;4.170;2022-08-07T05:35:12;12.03;;;11.03;;
5967;SDS011;3010;51.028;4.170;2022-08-07T05:37:39;16.03;;;13.43;;
5967;SDS011;3010;51.028;4.170;2022-08-07T05:40:05;14.90;;;13.30;;
5967;SDS011;3010;51.028;4.170;2022-08-07T05:42:32;16.10;;;13.80;;
5967;SDS011;3010;51.028;4.170;2022-08-07T05:44:58;17.17;;;14.27;;
5967;SDS011;3010;51.028;4.170;2022-08-07T05:47:25;14.83;;;13.20;;
5967;SDS011;3010;51.028;4.170;2022-08-07T05:49:52;14.67;;;13.23;;
5967;SDS011;3010;51.028;4.170;2022-08-07T05:52:18;16.43;;;13.30;;
5967;SDS011;3010;51.028;4.170;2022-08-07T05:54:45;13.83;;;12.13;;
5967;SDS011;3010;51.028;4.170;2022-08-07T05:57:11;14.27;;;11.47;;
5967;SDS011;3010;51.028;4.170;2022-08-07T05:59:39;11.47;;;10.27;;
5967;SDS011;3010;51.028;4.170;2022-08-07T06:02:05;10.97;;;9.97;;
5967;SDS011;3010;51.028;4.170;2022-08-07T06:04:33;10.83;;;9.93;;
5967;SDS011;3010;51.028;4.170;2022-08-07T06:06:58;10.43;;;9.33;;
5967;SDS011;3010;51.028;4.170;2022-08-07T06:09:24;9.87;;;8.90;;
5967;SDS011;3010;51.028;4.170;2022-08-07T06:11:51;11.10;;;9.00;;
5967;SDS011;3010;51.028;4.170;2022-08-07T06:14:18;9.10;;;8.30;;
5967;SDS011;3010;51.028;4.170;2022-08-07T06:16:45;11.07;;;9.45;;
5967;SDS011;3010;51.028;4.170;2022-08-07T06:19:11;8.87;;;8.13;;
5967;SDS011;3010;51.028;4.170;2022-08-07T06:21:37;9.27;;;8.43;;
5967;SDS011;3010;51.028;4.170;2022-08-07T06:24:04;8.33;;;7.53;;
5967;SDS011;3010;51.028;4.170;2022-08-07T06:26:31;8.77;;;8.00;;
5967;SDS011;3010;51.028;4.170;2022-08-07T06:28:57;8.70;;;7.87;;
5967;SDS011;3010;51.028;4.170;2022-08-07T06:31:24;8.02;;;7.25;;
5967;SDS011;3010;51.028;4.170;2022-08-07T06:33:50;7.77;;;7.17;;
5967;SDS011;3010;51.028;4.170;2022-08-07T06:36:17;7.10;;;6.53;;
5967;SDS011;3010;51.028;4.170;2022-08-07T06:38:44;7.40;;;6.70;;
5967;SDS011;3010;51.028;4.170;2022-08-07T06:41:16;7.53;;;6.90;;
5967;SDS011;3010;51.028;4.170;2022-08-07T06:43:43;6.43;;;5.83;;
5967;SDS011;3010;51.028;4.170;2022-08-07T06:46:09;6.23;;;5.73;;
5967;SDS011;3010;51.028;4.170;2022-08-07T06:48:36;5.90;;;5.30;;
5967;SDS011;3010;51.028;4.170;2022-08-07T06:51:03;6.50;;;5.77;;
5967;SDS011;3010;51.028;4.170;2022-08-07T06:53:29;5.87;;;5.43;;
5967;SDS011;3010;51.028;4.170;2022-08-07T06:55:56;5.63;;;5.20;;
5967;SDS011;3010;51.028;4.170;2022-08-07T06:58:22;4.50;;;4.30;;
5967;SDS011;3010;51.028;4.170;2022-08-07T07:00:49;8.17;;;4.67;;
5967;SDS011;3010;51.028;4.170;2022-08-07T07:03:15;4.77;;;4.47;;
5967;SDS011;3010;51.028;4.170;2022-08-07T07:05:42;5.10;;;4.77;;
5967;SDS011;3010;51.028;4.170;2022-08-07T07:08:09;4.67;;;4.23;;
5967;SDS011;3010;51.028;4.170;2022-08-07T07:10:35;4.50;;;4.20;;
5967;SDS011;3010;51.028;4.170;2022-08-07T07:13:26;3.70;;;3.50;;
5967;SDS011;3010;51.028;4.170;2022-08-07T07:15:42;4.27;;;3.40;;
5967;SDS011;3010;51.028;4.170;2022-08-07T07:18:05;4.20;;;3.40;;
5967;SDS011;3010;51.028;4.170;2022-08-07T07:20:35;3.77;;;3.23;;
5967;SDS011;3010;51.028;4.170;2022-08-07T07:23:00;3.33;;;3.13;;
5967;SDS011;3010;51.028;4.170;2022-08-07T07:25:26;3.13;;;2.87;;
5967;SDS011;3010;51.028;4.170;2022-08-07T07:28:00;6.10;;;2.73;;
5967;SDS011;3010;51.028;4.170;2022-08-07T07:30:26;2.97;;;2.87;;
5967;SDS011;3010;51.028;4.170;2022-08-07T07:32:52;3.40;;;2.93;;
5967;SDS011;3010;51.028;4.170;2022-08-07T07:35:19;7.20;;;2.50;;
5967;SDS011;3010;51.028;4.170;2022-08-07T07:37:45;2.63;;;2.27;;
5967;SDS011;3010;51.028;4.170;2022-08-07T07:40:14;4.65;;;2.47;;
5967;SDS011;3010;51.028;4.170;2022-08-07T07:42:38;3.17;;;2.00;;
5967;SDS011;3010;51.028;4.170;2022-08-07T07:45:05;2.35;;;2.08;;
5967;SDS011;3010;51.028;4.170;2022-08-07T07:47:32;2.20;;;2.20;;
5967;SDS011;3010;51.028;4.170;2022-08-07T07:50:01;3.57;;;3.00;;
5967;SDS011;3010;51.028;4.170;2022-08-07T07:52:27;5.80;;;2.93;;
5967;SDS011;3010;51.028;4.170;2022-08-07T07:54:54;3.03;;;2.77;;
5967;SDS011;3010;51.028;4.170;2022-08-07T07:57:22;3.33;;;3.00;;
5967;SDS011;3010;51.028;4.170;2022-08-07T07:59:47;3.87;;;3.63;;
5967;SDS011;3010;51.028;4.170;2022-08-07T08:02:14;3.47;;;3.37;;
5967;SDS011;3010;51.028;4.170;2022-08-07T08:04:40;3.30;;;3.10;;
5967;SDS011;3010;51.028;4.170;2022-08-07T08:07:07;3.97;;;3.78;;
5967;SDS011;3010;51.028;4.170;2022-08-07T08:09:33;4.60;;;3.37;;
5967;SDS011;3010;51.028;4.170;2022-08-07T08:12:00;4.53;;;3.20;;
5967;SDS011;3010;51.028;4.170;2022-08-07T08:14:27;3.43;;;3.23;;
5967;SDS011;3010;51.028;4.170;2022-08-07T08:16:53;3.67;;;3.37;;
5967;SDS011;3010;51.028;4.170;2022-08-07T08:19:23;4.50;;;4.10;;
5967;SDS011;3010;51.028;4.170;2022-08-07T08:21:47;4.10;;;3.80;;
5967;SDS011;3010;51.028;4.170;2022-08-07T08:24:35;3.83;;;3.40;;
5967;SDS011;3010;51.028;4.170;2022-08-07T08:27:16;3.20;;;3.00;;
5967;SDS011;3010;51.028;4.170;2022-08-07T08:29:45;4.40;;;3.10;;
5967;SDS011;3010;51.028;4.170;2022-08-07T08:32:19;3.40;;;3.20;;
5967;SDS011;3010;51.028;4.170;2022-08-07T08:34:48;4.00;;;3.80;;
5967;SDS011;3010;51.028;4.170;2022-08-07T08:37:15;3.53;;;3.40;;
5967;SDS011;3010;51.028;4.170;2022-08-07T08:39:44;3.50;;;3.30;;
5967;SDS011;3010;51.028;4.170;2022-08-07T08:42:12;4.03;;;3.60;;
5967;SDS011;3010;51.028;4.170;2022-08-07T08:44:47;3.70;;;3.50;;
5967;SDS011;3010;51.028;4.170;2022-08-07T08:47:25;3.20;;;3.00;;
5967;SDS011;3010;51.028;4.170;2022-08-07T08:49:55;3.40;;;3.10;;
5967;SDS011;3010;51.028;4.170;2022-08-07T08:52:30;3.30;;;2.97;;
5967;SDS011;3010;51.028;4.170;2022-08-07T08:55:09;3.77;;;2.80;;
5967;SDS011;3010;51.028;4.170;2022-08-07T08:57:46;2.70;;;2.60;;
5967;SDS011;3010;51.028;4.170;2022-08-07T09:00:10;2.63;;;2.43;;
5967;SDS011;3010;51.028;4.170;2022-08-07T09:02:43;2.20;;;2.10;;
5967;SDS011;3010;51.028;4.170;2022-08-07T09:05:12;2.43;;;2.33;;
5967;SDS011;3010;51.028;4.170;2022-08-07T09:07:46;2.37;;;2.27;;
5967;SDS011;3010;51.028;4.170;2022-08-07T09:10:27;2.60;;;2.50;;
5967;SDS011;3010;51.028;4.170;2022-08-07T09:12:55;2.57;;;2.47;;
5967;SDS011;3010;51.028;4.170;2022-08-07T09:20:45;8.10;;;2.37;;
5967;SDS011;3010;51.028;4.170;2022-08-07T09:28:43;2.37;;;2.23;;
5967;SDS011;3010;51.028;4.170;2022-08-07T09:31:19;2.73;;;2.30;;
5967;SDS011;3010;51.028;4.170;2022-08-07T09:39:35;2.70;;;2.50;;
5967;SDS011;3010;51.028;4.170;2022-08-07T09:47:43;23.63;;;3.43;;
5967;SDS011;3010;51.028;4.170;2022-08-07T09:50:11;3.77;;;2.70;;
5967;SDS011;3010;51.028;4.170;2022-08-07T09:52:46;3.00;;;2.90;;
5967;SDS011;3010;51.028;4.170;2022-08-07T10:03:33;2.67;;;2.47;;
5967;SDS011;3010;51.028;4.170;2022-08-07T10:11:54;2.60;;;2.50;;
5967;SDS011;3010;51.028;4.170;2022-08-07T10:19:59;1.90;;;1.90;;
5967;SDS011;3010;51.028;4.170;2022-08-07T10:46:50;2.63;;;2.40;;
5967;SDS011;3010;51.028;4.170;2022-08-07T10:49:25;2.53;;;2.20;;
5967;SDS011;3010;51.028;4.170;2022-08-07T10:51:56;2.13;;;2.03;;
5967;SDS011;3010;51.028;4.170;2022-08-07T11:02:28;3.05;;;2.85;;
5967;SDS011;3010;51.028;4.170;2022-08-07T11:10:12;2.57;;;2.50;;
5967;SDS011;3010;51.028;4.170;2022-08-07T11:12:35;3.10;;;2.80;;
5967;SDS011;3010;51.028;4.170;2022-08-07T11:15:05;2.80;;;2.63;;
5967;SDS011;3010;51.028;4.170;2022-08-07T11:17:37;5.30;;;2.70;;
5967;SDS011;3010;51.028;4.170;2022-08-07T11:20:04;2.97;;;2.77;;
5967;SDS011;3010;51.028;4.170;2022-08-07T11:22:36;2.63;;;2.43;;
5967;SDS011;3010;51.028;4.170;2022-08-07T11:25:12;3.37;;;2.50;;
5967;SDS011;3010;51.028;4.170;2022-08-07T11:30:36;3.07;;;2.23;;
5967;SDS011;3010;51.028;4.170;2022-08-07T11:33:01;4.00;;;2.80;;
5967;SDS011;3010;51.028;4.170;2022-08-07T11:35:53;2.43;;;2.33;;
5967;SDS011;3010;51.028;4.170;2022-08-07T11:38:21;2.72;;;2.53;;
5967;SDS011;3010;51.028;4.170;2022-08-07T11:40:53;2.67;;;2.47;;
5967;SDS011;3010;51.028;4.170;2022-08-07T11:43:25;2.77;;;2.67;;
5967;SDS011;3010;51.028;4.170;2022-08-07T11:51:54;2.70;;;2.53;;
5967;SDS011;3010;51.028;4.170;2022-08-07T11:57:41;2.30;;;2.10;;
5967;SDS011;3010;51.028;4.170;2022-08-07T12:10:38;2.67;;;2.47;;
5967;SDS011;3010;51.028;4.170;2022-08-07T12:13:04;2.72;;;2.53;;
5967;SDS011;3010;51.028;4.170;2022-08-07T12:15:33;3.17;;;2.43;;
5967;SDS011;3010;51.028;4.170;2022-08-07T12:18:11;3.03;;;2.30;;
5967;SDS011;3010;51.028;4.170;2022-08-07T12:20:35;2.80;;;2.60;;
5967;SDS011;3010;51.028;4.170;2022-08-07T12:25:51;2.20;;;2.10;;
5967;SDS011;3010;51.028;4.170;2022-08-07T12:28:20;2.47;;;2.30;;
5967;SDS011;3010;51.028;4.170;2022-08-07T12:30:50;2.93;;;2.60;;
5967;SDS011;3010;51.028;4.170;2022-08-07T12:33:18;2.80;;;2.60;;
5967;SDS011;3010;51.028;4.170;2022-08-07T12:35:43;2.53;;;2.33;;
5967;SDS011;3010;51.028;4.170;2022-08-07T12:38:09;2.43;;;2.33;;
5967;SDS011;3010;51.028;4.170;2022-08-07T12:40:35;4.90;;;2.50;;
5967;SDS011;3010;51.028;4.170;2022-08-07T12:43:02;2.43;;;2.23;;
5967;SDS011;3010;51.028;4.170;2022-08-07T12:45:46;2.80;;;2.63;;
5967;SDS011;3010;51.028;4.170;2022-08-07T12:48:15;3.53;;;2.50;;
5967;SDS011;3010;51.028;4.170;2022-08-07T12:56:11;2.63;;;2.43;;
5967;SDS011;3010;51.028;4.170;2022-08-07T12:58:39;2.60;;;2.40;;
5967;SDS011;3010;51.028;4.170;2022-08-07T13:01:06;2.67;;;2.27;;
5967;SDS011;3010;51.028;4.170;2022-08-07T13:03:48;2.33;;;2.23;;
5967;SDS011;3010;51.028;4.170;2022-08-07T13:06:28;2.30;;;2.20;;
5967;SDS011;3010;51.028;4.170;2022-08-07T13:09:01;2.90;;;2.80;;
5967;SDS011;3010;51.028;4.170;2022-08-07T13:11:36;3.13;;;3.03;;
5967;SDS011;3010;51.028;4.170;2022-08-07T13:14:05;2.80;;;2.47;;
5967;SDS011;3010;51.028;4.170;2022-08-07T13:19:49;2.37;;;2.27;;
5967;SDS011;3010;51.028;4.170;2022-08-07T13:22:20;3.17;;;2.50;;
5967;SDS011;3010;51.028;4.170;2022-08-07T13:25:24;2.40;;;2.30;;
5967;SDS011;3010;51.028;4.170;2022-08-07T13:27:28;2.40;;;2.30;;
5967;SDS011;3010;51.028;4.170;2022-08-07T13:29:55;2.27;;;2.17;;
5967;SDS011;3010;51.028;4.170;2022-08-07T13:32:46;2.93;;;2.70;;
5967;SDS011;3010;51.028;4.170;2022-08-07T13:35:11;4.63;;;2.30;;
5967;SDS011;3010;51.028;4.170;2022-08-07T13:40:36;2.17;;;2.17;;
5967;SDS011;3010;51.028;4.170;2022-08-07T13:43:05;2.77;;;2.50;;
5967;SDS011;3010;51.028;4.170;2022-08-07T13:45:33;2.93;;;2.40;;
5967;SDS011;3010;51.028;4.170;2022-08-07T13:47:58;5.47;;;3.33;;
5967;SDS011;3010;51.028;4.170;2022-08-07T13:50:25;6.13;;;2.77;;
5967;SDS011;3010;51.028;4.170;2022-08-07T13:52:52;3.00;;;2.80;;
5967;SDS011;3010;51.028;4.170;2022-08-07T13:55:21;2.58;;;2.42;;
5967;SDS011;3010;51.028;4.170;2022-08-07T13:57:52;2.60;;;2.40;;
5967;SDS011;3010;51.028;4.170;2022-08-07T14:00:14;2.20;;;2.00;;
5967;SDS011;3010;51.028;4.170;2022-08-07T14:02:41;3.60;;;2.13;;
5967;SDS011;3010;51.028;4.170;2022-08-07T14:05:08;2.20;;;2.10;;
5967;SDS011;3010;51.028;4.170;2022-08-07T14:07:41;2.40;;;2.30;;
5967;SDS011;3010;51.028;4.170;2022-08-07T14:10:03;1.90;;;1.80;;
5967;SDS011;3010;51.028;4.170;2022-08-07T14:15:37;2.20;;;2.10;;
5967;SDS011;3010;51.028;4.170;2022-08-07T14:18:06;1.87;;;1.70;;
5967;SDS011;3010;51.028;4.170;2022-08-07T14:20:32;3.70;;;1.90;;
5967;SDS011;3010;51.028;4.170;2022-08-07T14:23:00;1.93;;;1.90;;
5967;SDS011;3010;51.028;4.170;2022-08-07T14:25:26;2.50;;;2.30;;
5967;SDS011;3010;51.028;4.170;2022-08-07T14:27:52;2.50;;;2.30;;
5967;SDS011;3010;51.028;4.170;2022-08-07T14:30:18;2.57;;;1.90;;
5967;SDS011;3010;51.028;4.170;2022-08-07T14:32:49;1.73;;;1.70;;
5967;SDS011;3010;51.028;4.170;2022-08-07T14:35:22;2.10;;;1.92;;
5967;SDS011;3010;51.028;4.170;2022-08-07T14:37:48;2.37;;;1.70;;
5967;SDS011;3010;51.028;4.170;2022-08-07T14:40:15;2.57;;;2.37;;
5967;SDS011;3010;51.028;4.170;2022-08-07T14:42:41;2.60;;;2.50;;
5967;SDS011;3010;51.028;4.170;2022-08-07T14:45:07;2.10;;;2.00;;
5967;SDS011;3010;51.028;4.170;2022-08-07T14:47:34;2.12;;;1.90;;
5967;SDS011;3010;51.028;4.170;2022-08-07T14:50:04;2.13;;;2.03;;
5967;SDS011;3010;51.028;4.170;2022-08-07T14:52:29;2.00;;;1.90;;
5967;SDS011;3010;51.028;4.170;2022-08-07T14:54:54;2.43;;;2.00;;
5967;SDS011;3010;51.028;4.170;2022-08-07T14:57:20;2.23;;;2.03;;
5967;SDS011;3010;51.028;4.170;2022-08-07T14:59:47;1.90;;;1.80;;
5967;SDS011;3010;51.028;4.170;2022-08-07T15:02:14;2.22;;;1.90;;
5967;SDS011;3010;51.028;4.170;2022-08-07T15:04:40;2.20;;;2.10;;
5967;SDS011;3010;51.028;4.170;2022-08-07T15:07:08;2.70;;;2.10;;
5967;SDS011;3010;51.028;4.170;2022-08-07T15:09:36;2.87;;;2.57;;
5967;SDS011;3010;51.028;4.170;2022-08-07T15:12:08;1.77;;;1.67;;
5967;SDS011;3010;51.028;4.170;2022-08-07T15:14:33;3.03;;;2.30;;
5967;SDS011;3010;51.028;4.170;2022-08-07T15:17:00;2.23;;;2.13;;
5967;SDS011;3010;51.028;4.170;2022-08-07T15:19:27;2.03;;;1.93;;
5967;SDS011;3010;51.028;4.170;2022-08-07T15:21:52;2.67;;;1.80;;
5967;SDS011;3010;51.028;4.170;2022-08-07T15:24:19;2.70;;;2.50;;
5967;SDS011;3010;51.028;4.170;2022-08-07T15:26:54;2.53;;;2.43;;
5967;SDS011;3010;51.028;4.170;2022-08-07T15:29:21;2.03;;;1.80;;
5967;SDS011;3010;51.028;4.170;2022-08-07T15:31:48;2.30;;;2.20;;
5967;SDS011;3010;51.028;4.170;2022-08-07T15:34:15;2.30;;;2.20;;
5967;SDS011;3010;51.028;4.170;2022-08-07T15:36:42;2.27;;;2.07;;
5967;SDS011;3010;51.028;4.170;2022-08-07T15:39:08;2.22;;;2.10;;
5967;SDS011;3010;51.028;4.170;2022-08-07T15:41:36;2.10;;;1.83;;
5967;SDS011;3010;51.028;4.170;2022-08-07T15:44:11;2.40;;;2.10;;
5967;SDS011;3010;51.028;4.170;2022-08-07T15:46:37;4.00;;;2.00;;
5967;SDS011;3010;51.028;4.170;2022-08-07T15:49:04;2.70;;;2.27;;
5967;SDS011;3010;51.028;4.170;2022-08-07T15:51:30;2.20;;;1.97;;
5967;SDS011;3010;51.028;4.170;2022-08-07T15:53:57;2.20;;;2.10;;
5967;SDS011;3010;51.028;4.170;2022-08-07T15:56:28;2.63;;;2.00;;
5967;SDS011;3010;51.028;4.170;2022-08-07T15:58:53;2.07;;;1.97;;
5967;SDS011;3010;51.028;4.170;2022-08-07T16:01:23;2.17;;;1.93;;
5967;SDS011;3010;51.028;4.170;2022-08-07T16:03:50;2.77;;;2.40;;
5967;SDS011;3010;51.028;4.170;2022-08-07T16:06:32;2.20;;;1.93;;
5967;SDS011;3010;51.028;4.170;2022-08-07T16:09:03;2.33;;;2.10;;
5967;SDS011;3010;51.028;4.170;2022-08-07T16:11:32;2.27;;;2.03;;
5967;SDS011;3010;51.028;4.170;2022-08-07T16:14:17;2.80;;;2.10;;
5967;SDS011;3010;51.028;4.170;2022-08-07T16:16:51;2.17;;;2.07;;
5967;SDS011;3010;51.028;4.170;2022-08-07T16:22:07;2.12;;;2.00;;
5967;SDS011;3010;51.028;4.170;2022-08-07T16:24:33;1.90;;;1.80;;
5967;SDS011;3010;51.028;4.170;2022-08-07T16:27:02;2.23;;;2.13;;
5967;SDS011;3010;51.028;4.170;2022-08-07T16:32:07;2.87;;;2.20;;
5967;SDS011;3010;51.028;4.170;2022-08-07T16:42:37;2.90;;;2.40;;
5967;SDS011;3010;51.028;4.170;2022-08-07T16:45:04;4.47;;;2.27;;
5967;SDS011;3010;51.028;4.170;2022-08-07T16:50:18;2.17;;;2.00;;
5967;SDS011;3010;51.028;4.170;2022-08-07T16:53:02;2.33;;;2.30;;
5967;SDS011;3010;51.028;4.170;2022-08-07T16:55:52;2.63;;;2.37;;
5967;SDS011;3010;51.028;4.170;2022-08-07T17:06:31;2.23;;;2.13;;
5967;SDS011;3010;51.028;4.170;2022-08-07T17:09:00;2.20;;;2.10;;
5967;SDS011;3010;51.028;4.170;2022-08-07T17:14:14;3.57;;;2.27;;
5967;SDS011;3010;51.028;4.170;2022-08-07T17:16:55;2.50;;;2.30;;
5967;SDS011;3010;51.028;4.170;2022-08-07T17:19:21;2.17;;;2.08;;
5967;SDS011;3010;51.028;4.170;2022-08-07T17:21:53;2.70;;;2.50;;
5967;SDS011;3010;51.028;4.170;2022-08-07T17:24:26;2.40;;;2.20;;
5967;SDS011;3010;51.028;4.170;2022-08-07T17:29:48;3.23;;;2.20;;
5967;SDS011;3010;51.028;4.170;2022-08-07T17:34:45;2.70;;;2.50;;
5967;SDS011;3010;51.028;4.170;2022-08-07T17:37:15;2.80;;;2.50;;
5967;SDS011;3010;51.028;4.170;2022-08-07T17:44:56;2.63;;;2.43;;
5967;SDS011;3010;51.028;4.170;2022-08-07T17:52:43;2.73;;;2.13;;
5967;SDS011;3010;51.028;4.170;2022-08-07T17:55:13;3.17;;;2.22;;
5967;SDS011;3010;51.028;4.170;2022-08-07T18:00:09;2.63;;;2.43;;
5967;SDS011;3010;51.028;4.170;2022-08-07T18:02:39;4.07;;;2.58;;
5967;SDS011;3010;51.028;4.170;2022-08-07T18:10:42;2.90;;;2.63;;
5967;SDS011;3010;51.028;4.170;2022-08-07T18:13:16;2.57;;;2.40;;
5967;SDS011;3010;51.028;4.170;2022-08-07T18:15:57;3.07;;;2.87;;
5967;SDS011;3010;51.028;4.170;2022-08-07T18:18:22;2.80;;;2.70;;
5967;SDS011;3010;51.028;4.170;2022-08-07T18:21:12;3.75;;;2.50;;